Time;durP1;ratioP1;P1;durP2;ratioP2;P2;SDS_P1;SDS_P2;PMS_P1;PMS_P2;Temp;Humidity;BMP_temperature;BMP_pressure;BME280_temperature;BME280_humidity;BME280_pressure;Samples;Min_cycle;Max_cycle;Signal;HPM_P1;HPM_P2
2021/12/31 00:00:11;;;;;;;11.45;7.63;;;;;;;;;;5071613;28;20020;-70
2021/12/31 00:02:37;;;;;;;12.23;8.32;;;;;;;;;;5071503;28;20017;-71
2021/12/31 00:05:03;;;;;;;12.13;7.88;;;;;;;;;;5070102;28;20029;-71
2021/12/31 00:07:29;;;;;;;15.18;7.43;;;;;;;;;;5070988;28;20128;-69
2021/12/31 00:10:00;;;;;;;13.52;8.82;;;;;;;;;;5071183;28;20020;-65
2021/12/31 00:12:26;;;;;;;12.18;8.45;;;;;;;;;;5070345;28;20024;-71
2021/12/31 00:14:52;;;;;;;13.35;9.15;;;;;;;;;;5071440;28;20055;-71
2021/12/31 00:17:18;;;;;;;12.93;8.90;;;;;;;;;;5071275;28;20082;-76
2021/12/31 00:19:46;;;;;;;13.48;8.18;;;;;;;;;;5071295;28;20032;-72
2021/12/31 00:24:58;;;;;;;13.02;8.73;;;;;;;;;;5091318;28;20123;-64
2021/12/31 00:27:24;;;;;;;10.40;6.53;;;;;;;;;;5089995;28;20403;-62
2021/12/31 00:29:50;;;;;;;28.95;8.90;;;;;;;;;;5087875;28;20027;-63
2021/12/31 00:32:18;;;;;;;13.10;8.15;;;;;;;;;;5073253;28;20082;-70
2021/12/31 00:34:44;;;;;;;12.35;8.05;;;;;;;;;;5091044;28;20020;-74
2021/12/31 00:37:10;;;;;;;13.48;8.52;;;;;;;;;;5090275;28;20028;-73
2021/12/31 00:39:36;;;;;;;12.50;8.02;;;;;;;;;;5090236;28;20567;-70
2021/12/31 00:42:02;;;;;;;11.57;7.63;;;;;;;;;;5090068;28;20114;-74
2021/12/31 00:44:28;;;;;;;10.50;7.30;;;;;;;;;;5091355;28;20020;-71
2021/12/31 00:46:54;;;;;;;11.77;7.80;;;;;;;;;;5091357;28;20032;-76
2021/12/31 00:49:21;;;;;;;13.07;7.30;;;;;;;;;;5093095;28;20447;-76
2021/12/31 00:51:47;;;;;;;11.50;7.53;;;;;;;;;;5094446;28;20586;-72
2021/12/31 00:54:13;;;;;;;12.93;7.55;;;;;;;;;;5095826;28;20153;-73
2021/12/31 00:56:39;;;;;;;13.02;7.35;;;;;;;;;;5095431;28;20028;-74
2021/12/31 00:59:05;;;;;;;10.18;7.10;;;;;;;;;;5095305;28;20008;-67
2021/12/31 01:01:34;;;;;;;9.70;6.70;;;;;;;;;;5095120;28;20024;-66
2021/12/31 01:04:00;;;;;;;12.55;7.28;;;;;;;;;;5095141;28;20017;-69
2021/12/31 01:06:26;;;;;;;9.27;6.40;;;;;;;;;;5095186;28;20028;-71
2021/12/31 01:08:52;;;;;;;11.93;7.53;;;;;;;;;;5094989;28;20024;-75
2021/12/31 01:11:18;;;;;;;9.98;6.95;;;;;;;;;;5095106;28;20019;-76
2021/12/31 01:13:58;;;;;;;9.93;7.22;;;;;;;;;;5095378;28;20032;-76
2021/12/31 01:16:34;;;;;;;10.15;6.93;;;;;;;;;;5095330;28;20383;-75
2021/12/31 01:21:26;;;;;;;10.93;7.57;;;;;;;;;;5094783;28;20044;-74
2021/12/31 01:23:53;;;;;;;10.13;7.00;;;;;;;;;;5095267;28;20051;-76
2021/12/31 01:26:19;;;;;;;10.75;7.28;;;;;;;;;;5094887;28;20484;-74
2021/12/31 01:28:46;;;;;;;9.65;6.75;;;;;;;;;;5095467;28;20028;-75
2021/12/31 01:31:12;;;;;;;10.10;7.22;;;;;;;;;;5094358;28;20020;-71
2021/12/31 01:33:38;;;;;;;9.88;7.05;;;;;;;;;;5095494;28;20020;-76
2021/12/31 01:36:05;;;;;;;10.60;7.50;;;;;;;;;;5095244;28;20081;-75
2021/12/31 01:38:31;;;;;;;9.15;6.65;;;;;;;;;;5095246;28;20016;-78
2021/12/31 01:40:58;;;;;;;9.27;6.75;;;;;;;;;;5093921;28;20035;-77
2021/12/31 01:43:24;;;;;;;10.07;6.90;;;;;;;;;;5095274;28;20376;-77
2021/12/31 01:45:56;;;;;;;9.40;6.90;;;;;;;;;;5093365;28;20119;-77
2021/12/31 01:50:49;;;;;;;7.72;5.72;;;;;;;;;;5094646;28;20020;-70
2021/12/31 01:53:16;;;;;;;8.00;5.75;;;;;;;;;;5094496;28;20085;-74
2021/12/31 01:55:43;;;;;;;8.30;6.22;;;;;;;;;;5094879;28;20024;-72
2021/12/31 01:58:09;;;;;;;10.80;6.75;;;;;;;;;;5095068;28;20035;-73
2021/12/31 02:00:37;;;;;;;11.30;7.30;;;;;;;;;;5094476;28;20024;-73
2021/12/31 02:03:04;;;;;;;10.10;6.55;;;;;;;;;;5094271;28;20024;-73
2021/12/31 02:05:30;;;;;;;9.60;6.38;;;;;;;;;;5094267;28;20119;-72
2021/12/31 02:07:57;;;;;;;9.55;6.68;;;;;;;;;;5093604;28;20032;-72
2021/12/31 02:10:23;;;;;;;10.05;6.57;;;;;;;;;;5094161;28;20108;-76
2021/12/31 02:12:50;;;;;;;10.82;7.32;;;;;;;;;;5094484;28;20031;-66
2021/12/31 02:15:16;;;;;;;10.00;7.00;;;;;;;;;;5094645;28;20070;-70
2021/12/31 02:17:44;;;;;;;9.60;6.35;;;;;;;;;;5094674;28;20024;-68
2021/12/31 02:20:10;;;;;;;7.85;6.05;;;;;;;;;;5093375;28;20389;-75
2021/12/31 02:22:40;;;;;;;9.05;6.43;;;;;;;;;;5094501;28;20045;-68
2021/12/31 02:25:07;;;;;;;10.20;6.75;;;;;;;;;;5094362;28;20055;-75
2021/12/31 02:27:40;;;;;;;9.20;6.45;;;;;;;;;;5094559;28;20032;-68
2021/12/31 02:30:07;;;;;;;7.55;5.30;;;;;;;;;;5094432;28;20392;-69
2021/12/31 02:32:33;;;;;;;8.15;5.60;;;;;;;;;;5090447;28;20077;-70
2021/12/31 02:35:00;;;;;;;8.80;6.45;;;;;;;;;;5073785;28;20066;-75
2021/12/31 02:37:26;;;;;;;9.27;6.32;;;;;;;;;;5073969;28;20078;-68
2021/12/31 02:39:52;;;;;;;9.38;6.53;;;;;;;;;;5072496;28;20019;-69
2021/12/31 02:42:18;;;;;;;9.30;6.28;;;;;;;;;;5073898;28;20020;-73
2021/12/31 02:44:44;;;;;;;9.40;6.32;;;;;;;;;;5073876;28;20066;-74
2021/12/31 02:47:10;;;;;;;8.88;6.32;;;;;;;;;;5073787;28;20033;-75
2021/12/31 02:49:39;;;;;;;11.07;6.32;;;;;;;;;;5073224;28;20021;-71
2021/12/31 02:52:07;;;;;;;9.98;6.07;;;;;;;;;;5072883;28;20024;-73
2021/12/31 02:54:36;;;;;;;10.05;6.85;;;;;;;;;;5072945;28;20021;-72
2021/12/31 02:57:02;;;;;;;8.05;5.50;;;;;;;;;;5073245;28;20102;-72
2021/12/31 02:59:28;;;;;;;8.35;5.97;;;;;;;;;;5073051;28;20150;-72
2021/12/31 03:01:55;;;;;;;8.63;6.15;;;;;;;;;;5072815;28;20027;-70
2021/12/31 03:04:24;;;;;;;9.45;6.00;;;;;;;;;;5072786;28;20025;-71
2021/12/31 03:06:51;;;;;;;8.85;6.45;;;;;;;;;;5072849;28;20036;-72
2021/12/31 03:09:21;;;;;;;8.70;5.85;;;;;;;;;;5072820;28;20020;-72
2021/12/31 03:11:47;;;;;;;8.27;5.85;;;;;;;;;;5072076;28;20027;-72
2021/12/31 03:14:14;;;;;;;8.52;5.78;;;;;;;;;;5072841;28;20417;-72
2021/12/31 03:16:40;;;;;;;8.07;6.00;;;;;;;;;;5073175;28;20017;-69
2021/12/31 03:19:06;;;;;;;9.27;6.22;;;;;;;;;;5072787;28;20025;-76
2021/12/31 03:21:32;;;;;;;9.50;6.18;;;;;;;;;;5072539;28;20127;-76
2021/12/31 03:24:00;;;;;;;8.45;5.90;;;;;;;;;;5071647;28;20021;-69
2021/12/31 03:26:26;;;;;;;9.38;6.53;;;;;;;;;;5072445;28;20020;-71
2021/12/31 03:28:52;;;;;;;8.40;5.78;;;;;;;;;;5072448;28;20362;-75
2021/12/31 03:31:18;;;;;;;8.30;6.18;;;;;;;;;;5072176;28;20036;-76
2021/12/31 03:33:44;;;;;;;10.50;6.40;;;;;;;;;;5070751;28;20012;-70
2021/12/31 03:36:10;;;;;;;11.75;6.38;;;;;;;;;;5072173;28;20049;-66
2021/12/31 03:38:37;;;;;;;8.63;5.88;;;;;;;;;;5072557;28;20032;-75
2021/12/31 03:41:03;;;;;;;9.43;5.68;;;;;;;;;;5072678;28;20031;-76
2021/12/31 03:43:29;;;;;;;9.13;5.95;;;;;;;;;;5072737;28;20024;-68
2021/12/31 03:45:55;;;;;;;8.82;6.22;;;;;;;;;;5072364;28;20043;-70
2021/12/31 03:48:21;;;;;;;8.40;5.88;;;;;;;;;;5070424;28;20047;-72
2021/12/31 03:50:48;;;;;;;8.20;5.95;;;;;;;;;;5071966;28;20077;-72
2021/12/31 03:53:15;;;;;;;10.57;6.82;;;;;;;;;;5071895;28;20028;-71
2021/12/31 03:55:41;;;;;;;7.95;5.70;;;;;;;;;;5072211;28;20020;-68
2021/12/31 03:58:08;;;;;;;9.13;5.72;;;;;;;;;;5072605;28;20477;-63
2021/12/31 04:00:35;;;;;;;8.65;5.35;;;;;;;;;;5072586;28;20206;-76
2021/12/31 04:03:08;;;;;;;9.43;6.47;;;;;;;;;;5072302;28;20052;-70
2021/12/31 04:05:35;;;;;;;8.40;5.72;;;;;;;;;;5072611;28;20086;-72
2021/12/31 04:08:01;;;;;;;8.43;5.60;;;;;;;;;;5072228;28;20036;-74
2021/12/31 04:10:28;;;;;;;8.85;5.95;;;;;;;;;;5072491;28;20029;-70
2021/12/31 04:12:54;;;;;;;9.18;6.05;;;;;;;;;;5072343;28;20020;-71
2021/12/31 04:15:21;;;;;;;8.93;5.80;;;;;;;;;;5070715;28;20427;-69
2021/12/31 04:17:47;;;;;;;9.10;6.55;;;;;;;;;;5072375;28;20021;-67
2021/12/31 04:20:24;;;;;;;9.10;6.25;;;;;;;;;;5070909;28;20040;-77
2021/12/31 04:22:55;;;;;;;8.57;6.18;;;;;;;;;;5070239;28;20029;-76
2021/12/31 04:25:22;;;;;;;7.45;5.63;;;;;;;;;;5072415;28;20046;-77
2021/12/31 04:27:48;;;;;;;10.13;6.85;;;;;;;;;;5072013;28;20385;-70
2021/12/31 04:30:14;;;;;;;9.57;6.63;;;;;;;;;;5071091;28;20029;-77
2021/12/31 04:32:42;;;;;;;8.77;6.38;;;;;;;;;;5072370;28;20412;-62
2021/12/31 04:35:08;;;;;;;9.40;6.45;;;;;;;;;;5071924;28;20021;-62
2021/12/31 04:37:34;;;;;;;9.68;6.85;;;;;;;;;;5072020;28;20016;-62
2021/12/31 04:40:00;;;;;;;9.73;6.50;;;;;;;;;;5072023;28;20028;-62
2021/12/31 04:42:26;;;;;;;10.18;6.85;;;;;;;;;;5071363;28;20039;-66
2021/12/31 04:44:52;;;;;;;10.52;6.88;;;;;;;;;;5071510;28;20055;-67
2021/12/31 04:47:18;;;;;;;10.65;6.93;;;;;;;;;;5071263;28;20033;-64
2021/12/31 04:49:44;;;;;;;10.93;7.10;;;;;;;;;;5070076;28;20078;-67
2021/12/31 04:52:10;;;;;;;10.75;7.72;;;;;;;;;;5071024;28;20028;-64
2021/12/31 04:54:36;;;;;;;10.63;7.35;;;;;;;;;;5071139;28;20025;-62
2021/12/31 04:57:03;;;;;;;9.32;7.00;;;;;;;;;;5071602;28;20028;-66
2021/12/31 04:59:29;;;;;;;10.63;6.82;;;;;;;;;;5070400;28;20074;-64
2021/12/31 05:01:55;;;;;;;12.23;7.85;;;;;;;;;;5071819;28;20063;-64
2021/12/31 05:04:21;;;;;;;9.98;6.93;;;;;;;;;;5070645;28;20032;-63
2021/12/31 05:06:49;;;;;;;9.50;6.75;;;;;;;;;;5071614;28;20032;-66
2021/12/31 05:09:16;;;;;;;9.60;6.68;;;;;;;;;;5071473;28;20377;-65
2021/12/31 05:11:42;;;;;;;10.10;7.45;;;;;;;;;;5071649;28;20078;-63
2021/12/31 05:14:09;;;;;;;9.88;7.03;;;;;;;;;;5071651;28;20448;-64
2021/12/31 05:16:35;;;;;;;11.20;6.80;;;;;;;;;;5070477;28;20527;-64
2021/12/31 05:19:02;;;;;;;10.38;7.40;;;;;;;;;;5071684;28;20055;-68
2021/12/31 05:21:29;;;;;;;10.15;6.95;;;;;;;;;;5071574;28;20127;-63
2021/12/31 05:23:55;;;;;;;9.98;7.55;;;;;;;;;;5074967;28;20032;-64
2021/12/31 05:26:21;;;;;;;10.88;6.93;;;;;;;;;;5090262;28;20078;-63
2021/12/31 05:28:47;;;;;;;12.05;8.25;;;;;;;;;;5090544;28;20056;-64
2021/12/31 05:31:13;;;;;;;10.05;7.10;;;;;;;;;;5091967;28;20016;-64
2021/12/31 05:33:39;;;;;;;10.50;7.32;;;;;;;;;;5091288;28;20025;-63
2021/12/31 05:36:05;;;;;;;11.52;7.70;;;;;;;;;;5094758;28;20024;-63
2021/12/31 05:38:31;;;;;;;11.48;7.43;;;;;;;;;;5094851;28;20020;-75
2021/12/31 05:40:57;;;;;;;10.93;7.05;;;;;;;;;;5094716;28;20481;-62
2021/12/31 05:43:23;;;;;;;10.82;6.95;;;;;;;;;;5094757;28;20028;-63
2021/12/31 05:45:50;;;;;;;9.93;7.25;;;;;;;;;;5093210;28;20026;-63
2021/12/31 05:48:16;;;;;;;9.93;7.30;;;;;;;;;;5094507;28;20047;-63
2021/12/31 05:50:42;;;;;;;11.32;7.57;;;;;;;;;;5094499;28;20032;-64
2021/12/31 05:53:08;;;;;;;11.10;7.97;;;;;;;;;;5094383;28;20016;-65
2021/12/31 05:55:34;;;;;;;10.65;7.43;;;;;;;;;;5094392;28;20020;-64
2021/12/31 05:58:02;;;;;;;9.68;6.32;;;;;;;;;;5094178;28;20118;-64
2021/12/31 06:00:28;;;;;;;10.65;6.45;;;;;;;;;;5094429;28;20500;-65
2021/12/31 06:02:55;;;;;;;10.43;6.82;;;;;;;;;;5093631;28;20067;-64
2021/12/31 06:05:25;;;;;;;9.43;6.43;;;;;;;;;;5094909;28;20020;-67
2021/12/31 06:07:51;;;;;;;10.40;6.60;;;;;;;;;;5094430;28;20483;-64
2021/12/31 06:10:17;;;;;;;10.48;6.63;;;;;;;;;;5094758;28;20365;-70
2021/12/31 06:12:43;;;;;;;9.45;6.53;;;;;;;;;;5094389;28;20024;-63
2021/12/31 06:15:10;;;;;;;10.07;6.32;;;;;;;;;;5093120;28;20024;-64
2021/12/31 06:17:37;;;;;;;10.30;6.72;;;;;;;;;;5094405;28;20155;-63
2021/12/31 06:20:04;;;;;;;9.23;5.82;;;;;;;;;;5093937;28;20040;-64
2021/12/31 06:22:31;;;;;;;11.50;6.43;;;;;;;;;;5092839;28;20424;-63
2021/12/31 06:24:57;;;;;;;10.27;6.55;;;;;;;;;;5094410;28;20020;-63
2021/12/31 06:27:24;;;;;;;11.50;7.00;;;;;;;;;;5094295;28;20063;-64
2021/12/31 06:29:50;;;;;;;12.00;6.43;;;;;;;;;;5094423;28;20051;-63
2021/12/31 06:32:16;;;;;;;8.15;5.45;;;;;;;;;;5094387;28;20024;-64
2021/12/31 06:34:42;;;;;;;8.65;5.45;;;;;;;;;;5094362;28;20022;-71
2021/12/31 06:37:08;;;;;;;11.27;6.53;;;;;;;;;;5094379;28;20020;-71
2021/12/31 06:39:35;;;;;;;12.45;6.10;;;;;;;;;;5092997;28;20013;-72
2021/12/31 06:42:03;;;;;;;9.98;6.72;;;;;;;;;;5094262;28;20020;-71
2021/12/31 06:44:32;;;;;;;9.07;6.32;;;;;;;;;;5094158;28;20047;-72
2021/12/31 06:46:58;;;;;;;8.60;6.10;;;;;;;;;;5092829;28;20024;-72
2021/12/31 06:49:24;;;;;;;8.27;5.25;;;;;;;;;;5093820;28;20111;-65
2021/12/31 06:51:50;;;;;;;8.55;5.93;;;;;;;;;;5093840;28;20039;-64
2021/12/31 06:54:16;;;;;;;8.55;5.55;;;;;;;;;;5093817;28;20601;-64
2021/12/31 06:56:42;;;;;;;8.30;5.63;;;;;;;;;;5093739;28;20539;-66
2021/12/31 06:59:08;;;;;;;7.72;5.22;;;;;;;;;;5093476;28;20408;-63
2021/12/31 07:01:34;;;;;;;7.80;5.40;;;;;;;;;;5093307;28;20539;-64
2021/12/31 07:04:01;;;;;;;8.30;5.38;;;;;;;;;;5093065;28;20117;-63
2021/12/31 07:06:27;;;;;;;8.65;5.68;;;;;;;;;;5093155;28;20032;-63
2021/12/31 07:08:53;;;;;;;8.60;5.32;;;;;;;;;;5093696;28;20070;-65
2021/12/31 07:11:22;;;;;;;8.40;5.75;;;;;;;;;;5093237;28;20496;-64
2021/12/31 07:13:48;;;;;;;9.40;5.03;;;;;;;;;;5093733;28;20107;-69
2021/12/31 07:16:14;;;;;;;8.50;5.18;;;;;;;;;;5093637;28;20054;-68
2021/12/31 07:18:40;;;;;;;8.18;5.05;;;;;;;;;;5093409;28;20082;-68
2021/12/31 07:21:06;;;;;;;7.95;5.68;;;;;;;;;;5093078;28;20047;-73
2021/12/31 07:23:32;;;;;;;8.35;5.53;;;;;;;;;;5091805;28;20027;-64
2021/12/31 07:25:58;;;;;;;8.57;5.03;;;;;;;;;;5072626;28;20490;-64
2021/12/31 07:28:24;;;;;;;7.88;4.93;;;;;;;;;;5072844;28;20397;-64
2021/12/31 07:30:50;;;;;;;7.15;4.75;;;;;;;;;;5071603;28;20056;-66
2021/12/31 07:33:17;;;;;;;7.72;5.00;;;;;;;;;;5071415;28;20020;-65
2021/12/31 07:35:44;;;;;;;8.20;5.50;;;;;;;;;;5072756;28;20024;-70
2021/12/31 07:38:18;;;;;;;7.10;4.53;;;;;;;;;;5072500;28;20052;-69
2021/12/31 07:40:44;;;;;;;9.50;5.25;;;;;;;;;;5071291;28;20393;-66
2021/12/31 07:43:11;;;;;;;10.70;5.70;;;;;;;;;;5072372;28;20021;-67
2021/12/31 07:45:38;;;;;;;8.15;5.03;;;;;;;;;;5072503;28;20103;-67
2021/12/31 07:48:04;;;;;;;12.23;5.05;;;;;;;;;;5072094;28;20043;-62
2021/12/31 07:50:31;;;;;;;7.05;4.60;;;;;;;;;;5070286;28;20269;-69
2021/12/31 07:52:57;;;;;;;8.13;5.50;;;;;;;;;;5071798;28;20099;-63
2021/12/31 07:55:24;;;;;;;6.90;4.57;;;;;;;;;;5071973;28;20629;-62
2021/12/31 07:57:50;;;;;;;7.47;4.70;;;;;;;;;;5071509;28;20020;-62
2021/12/31 08:00:16;;;;;;;7.07;4.75;;;;;;;;;;5073175;28;20070;-62
2021/12/31 08:02:42;;;;;;;7.60;4.63;;;;;;;;;;5091877;28;20031;-63
2021/12/31 08:05:08;;;;;;;7.22;4.70;;;;;;;;;;5091813;28;20098;-66
2021/12/31 08:07:34;;;;;;;11.23;4.75;;;;;;;;;;5092059;28;20043;-73
2021/12/31 08:10:02;;;;;;;8.82;4.38;;;;;;;;;;5075833;28;20111;-63
2021/12/31 08:12:29;;;;;;;7.85;4.60;;;;;;;;;;5072384;28;20025;-72
2021/12/31 08:14:55;;;;;;;6.63;4.18;;;;;;;;;;5072030;28;20047;-63
2021/12/31 08:17:21;;;;;;;7.00;4.60;;;;;;;;;;5081090;28;20031;-64
2021/12/31 08:19:47;;;;;;;8.57;4.10;;;;;;;;;;5090706;28;20016;-66
2021/12/31 08:22:14;;;;;;;6.95;3.97;;;;;;;;;;5092235;28;20110;-65
2021/12/31 08:24:40;;;;;;;53.50;6.43;;;;;;;;;;5092012;28;20036;-67
2021/12/31 08:27:06;;;;;;;17.63;4.75;;;;;;;;;;5091657;28;20055;-65
2021/12/31 08:29:32;;;;;;;14.60;4.40;;;;;;;;;;5090145;28;20020;-64
2021/12/31 08:31:58;;;;;;;12.05;4.35;;;;;;;;;;5090163;28;20028;-64
2021/12/31 08:34:24;;;;;;;13.68;4.30;;;;;;;;;;5091520;28;20084;-76
2021/12/31 08:36:50;;;;;;;24.52;4.72;;;;;;;;;;5088344;28;20074;-65
2021/12/31 08:39:16;;;;;;;14.98;5.80;;;;;;;;;;5078776;28;20130;-75
2021/12/31 08:41:42;;;;;;;14.43;5.10;;;;;;;;;;5090919;28;20042;-74
2021/12/31 08:44:08;;;;;;;8.90;4.60;;;;;;;;;;5076260;28;20027;-75
2021/12/31 08:46:35;;;;;;;9.48;4.03;;;;;;;;;;5070519;28;20178;-71
2021/12/31 08:49:02;;;;;;;8.55;4.40;;;;;;;;;;5070185;28;20037;-65
2021/12/31 08:51:28;;;;;;;15.70;4.65;;;;;;;;;;5084113;28;20024;-64
2021/12/31 08:53:54;;;;;;;11.05;3.53;;;;;;;;;;5089294;28;20024;-66
2021/12/31 08:56:21;;;;;;;10.65;4.07;;;;;;;;;;5089958;28;20119;-78
2021/12/31 08:58:47;;;;;;;10.65;3.53;;;;;;;;;;5089083;28;20494;-70
2021/12/31 09:01:13;;;;;;;8.70;3.40;;;;;;;;;;5072196;28;20029;-74
2021/12/31 09:03:40;;;;;;;10.65;3.53;;;;;;;;;;5069334;28;20017;-68
2021/12/31 09:06:06;;;;;;;6.90;3.50;;;;;;;;;;5069073;28;20036;-70
2021/12/31 09:08:33;;;;;;;17.38;3.05;;;;;;;;;;5084772;28;20038;-64
2021/12/31 09:10:59;;;;;;;11.00;3.10;;;;;;;;;;5092729;28;20016;-73
2021/12/31 09:13:27;;;;;;;9.57;2.90;;;;;;;;;;5091532;28;20455;-70
2021/12/31 09:15:53;;;;;;;6.28;2.75;;;;;;;;;;5093295;28;20016;-66
2021/12/31 09:18:19;;;;;;;4.72;2.30;;;;;;;;;;5078125;28;20107;-64
2021/12/31 09:20:46;;;;;;;5.88;2.55;;;;;;;;;;5073881;28;20044;-65
2021/12/31 09:23:12;;;;;;;6.20;2.30;;;;;;;;;;5072724;28;20032;-71
2021/12/31 09:25:38;;;;;;;3.88;2.10;;;;;;;;;;5073954;28;20104;-66
2021/12/31 09:28:04;;;;;;;7.00;2.45;;;;;;;;;;5072293;28;20036;-69
2021/12/31 09:30:30;;;;;;;4.38;1.90;;;;;;;;;;5073581;28;20067;-73
2021/12/31 09:32:56;;;;;;;5.25;1.98;;;;;;;;;;5073755;28;20024;-64
2021/12/31 09:35:22;;;;;;;3.90;2.25;;;;;;;;;;5074439;28;20373;-64
2021/12/31 09:37:49;;;;;;;4.82;2.13;;;;;;;;;;5073795;28;20024;-71
2021/12/31 09:40:18;;;;;;;4.90;2.05;;;;;;;;;;5073538;28;20021;-69
2021/12/31 09:42:59;;;;;;;7.85;2.03;;;;;;;;;;5073362;28;20174;-69
2021/12/31 09:45:27;;;;;;;3.90;1.88;;;;;;;;;;5073257;28;20095;-72
2021/12/31 09:47:58;;;;;;;5.75;1.75;;;;;;;;;;5073197;28;20059;-75
2021/12/31 09:50:24;;;;;;;9.48;1.70;;;;;;;;;;5073592;28;20354;-69
2021/12/31 09:52:52;;;;;;;13.57;2.67;;;;;;;;;;5072494;28;20473;-66
2021/12/31 09:55:37;;;;;;;9.98;1.95;;;;;;;;;;5073530;28;20021;-73
2021/12/31 09:58:03;;;;;;;9.45;1.80;;;;;;;;;;5073378;28;20025;-74
2021/12/31 10:00:29;;;;;;;10.27;2.00;;;;;;;;;;5073291;28;20027;-72
2021/12/31 10:03:28;;;;;;;6.95;1.40;;;;;;;;;;5073179;28;20052;-65
2021/12/31 10:06:01;;;;;;;7.10;1.70;;;;;;;;;;5098497;28;20037;-67
2021/12/31 10:08:29;;;;;;;5.32;1.33;;;;;;;;;;5073882;28;20029;-71
2021/12/31 10:11:18;;;;;;;5.38;1.50;;;;;;;;;;5073399;28;20027;-64
2021/12/31 10:13:49;;;;;;;6.88;1.45;;;;;;;;;;5069764;28;20113;-70
2021/12/31 10:16:20;;;;;;;5.03;1.50;;;;;;;;;;5073077;28;20106;-67
2021/12/31 10:18:46;;;;;;;5.57;1.50;;;;;;;;;;5073049;28;20801;-62
2021/12/31 10:21:12;;;;;;;6.10;1.70;;;;;;;;;;5071313;28;20087;-71
2021/12/31 10:23:38;;;;;;;7.25;1.67;;;;;;;;;;5072973;28;20016;-70
2021/12/31 10:26:10;;;;;;;5.53;1.40;;;;;;;;;;5076515;28;20032;-69
2021/12/31 10:28:36;;;;;;;5.13;1.97;;;;;;;;;;5072908;28;20024;-81
2021/12/31 10:31:15;;;;;;;3.83;1.85;;;;;;;;;;5071548;28;20028;-76
2021/12/31 10:33:45;;;;;;;5.45;1.65;;;;;;;;;;5073060;28;20078;-76
2021/12/31 10:36:32;;;;;;;5.05;1.90;;;;;;;;;;5073254;28;20431;-72
2021/12/31 10:38:59;;;;;;;5.20;1.70;;;;;;;;;;5073447;28;20016;-71
2021/12/31 10:41:25;;;;;;;6.40;1.70;;;;;;;;;;5073387;28;20050;-70
2021/12/31 10:44:01;;;;;;;6.00;1.13;;;;;;;;;;5073116;28;20027;-78
2021/12/31 10:46:27;;;;;;;6.82;2.10;;;;;;;;;;5070995;28;20432;-75
2021/12/31 10:48:55;;;;;;;8.32;1.83;;;;;;;;;;5072485;28;20056;-70
2021/12/31 10:51:40;;;;;;;11.63;1.50;;;;;;;;;;5072391;28;20032;-71
2021/12/31 10:54:29;;;;;;;4.15;1.60;;;;;;;;;;5070879;28;20013;-75
2021/12/31 10:56:56;;;;;;;13.05;2.17;;;;;;;;;;5072240;28;20079;-72
2021/12/31 10:59:22;;;;;;;7.03;1.80;;;;;;;;;;5072883;28;20381;-71
2021/12/31 11:01:49;;;;;;;10.93;1.95;;;;;;;;;;5072218;28;20035;-71
2021/12/31 11:04:15;;;;;;;4.38;1.80;;;;;;;;;;5071830;28;20017;-64
2021/12/31 11:06:41;;;;;;;6.00;1.60;;;;;;;;;;5071931;28;20016;-66
2021/12/31 11:09:08;;;;;;;4.10;1.50;;;;;;;;;;5071573;28;20032;-69
2021/12/31 11:11:35;;;;;;;7.20;1.45;;;;;;;;;;5070616;28;20027;-73
2021/12/31 11:14:02;;;;;;;6.80;1.45;;;;;;;;;;5072054;28;20025;-65
2021/12/31 11:16:29;;;;;;;6.78;1.70;;;;;;;;;;5072420;28;20025;-67
2021/12/31 11:18:55;;;;;;;7.82;1.40;;;;;;;;;;5071147;28;20048;-64
2021/12/31 11:21:22;;;;;;;2.38;1.17;;;;;;;;;;5070693;28;20075;-68
2021/12/31 11:23:49;;;;;;;8.65;1.10;;;;;;;;;;5071314;28;20108;-65
2021/12/31 11:26:26;;;;;;;2.33;1.00;;;;;;;;;;5070321;28;20021;-66
2021/12/31 11:28:53;;;;;;;3.30;1.08;;;;;;;;;;5071500;28;20036;-68
2021/12/31 11:31:19;;;;;;;3.28;1.20;;;;;;;;;;5070220;28;20024;-65
2021/12/31 11:34:08;;;;;;;2.70;1.00;;;;;;;;;;5071692;28;20027;-66
2021/12/31 11:36:55;;;;;;;4.22;1.13;;;;;;;;;;5067830;28;20496;-64
2021/12/31 11:39:24;;;;;;;2.75;0.95;;;;;;;;;;5071402;28;20016;-63
2021/12/31 11:41:54;;;;;;;2.15;0.93;;;;;;;;;;5069981;28;20016;-64
2021/12/31 11:44:23;;;;;;;2.25;0.77;;;;;;;;;;5071378;28;20025;-64
2021/12/31 11:46:50;;;;;;;2.10;0.80;;;;;;;;;;5071344;28;20028;-63
2021/12/31 11:49:19;;;;;;;1.38;0.77;;;;;;;;;;5071465;28;20024;-65
2021/12/31 11:52:00;;;;;;;2.88;0.60;;;;;;;;;;5070426;28;20025;-63
2021/12/31 11:54:27;;;;;;;2.83;0.82;;;;;;;;;;5071086;28;20090;-64
2021/12/31 11:56:55;;;;;;;1.60;0.70;;;;;;;;;;5069727;28;20535;-63
2021/12/31 11:59:21;;;;;;;2.13;0.77;;;;;;;;;;5070941;28;20486;-63
2021/12/31 12:01:48;;;;;;;4.57;0.80;;;;;;;;;;5070945;28;20017;-65
2021/12/31 12:04:34;;;;;;;1.33;0.68;;;;;;;;;;5070974;28;20016;-64
2021/12/31 12:07:03;;;;;;;1.25;0.70;;;;;;;;;;5070094;28;20029;-66
2021/12/31 12:09:38;;;;;;;1.05;0.60;;;;;;;;;;5070998;28;20443;-66
2021/12/31 12:12:04;;;;;;;0.75;0.50;;;;;;;;;;5069688;28;20032;-68
2021/12/31 12:14:32;;;;;;;1.48;0.70;;;;;;;;;;5070659;28;20032;-64
2021/12/31 12:16:58;;;;;;;3.70;0.68;;;;;;;;;;5069690;28;20186;-65
2021/12/31 12:19:43;;;;;;;3.50;0.70;;;;;;;;;;5069708;28;20420;-63
2021/12/31 12:22:09;;;;;;;1.25;0.68;;;;;;;;;;5069460;28;20527;-64
2021/12/31 12:24:36;;;;;;;0.68;0.45;;;;;;;;;;5071328;28;20707;-65
2021/12/31 12:27:03;;;;;;;0.55;0.50;;;;;;;;;;5070517;28;20071;-67
2021/12/31 12:29:29;;;;;;;1.50;0.57;;;;;;;;;;5070706;28;20469;-69
2021/12/31 12:32:12;;;;;;;1.58;0.63;;;;;;;;;;5078215;28;20016;-65
2021/12/31 12:34:37;;;;;;;;;;;;;;;;;;5091434;28;20044;-68
2021/12/31 12:37:04;;;;;;;1.52;0.30;;;;;;;;;;5090917;28;20328;-66
2021/12/31 12:39:30;;;;;;;0.93;0.47;;;;;;;;;;5090694;28;20099;-65
2021/12/31 12:41:57;;;;;;;1.88;0.43;;;;;;;;;;5089948;28;20024;-64
2021/12/31 12:44:23;;;;;;;0.80;0.40;;;;;;;;;;5088569;28;20031;-65
2021/12/31 12:46:52;;;;;;;0.70;0.50;;;;;;;;;;5090553;28;20115;-64
2021/12/31 12:49:18;;;;;;;0.70;0.55;;;;;;;;;;5090758;28;20027;-64
2021/12/31 12:51:46;;;;;;;1.45;0.60;;;;;;;;;;5090835;28;20017;-64
2021/12/31 12:54:18;;;;;;;0.60;0.47;;;;;;;;;;5090660;28;20052;-63
2021/12/31 12:56:44;;;;;;;0.90;0.52;;;;;;;;;;5089218;28;20074;-65
2021/12/31 12:59:10;;;;;;;1.25;0.50;;;;;;;;;;5089821;28;20020;-66
2021/12/31 13:01:42;;;;;;;0.30;0.30;;;;;;;;;;5089263;28;20034;-68
2021/12/31 13:04:09;;;;;;;0.98;0.40;;;;;;;;;;5090454;28;20034;-65
2021/12/31 13:06:35;;;;;;;1.25;0.50;;;;;;;;;;5090263;28;20024;-64
2021/12/31 13:09:06;;;;;;;0.80;0.50;;;;;;;;;;5089251;28;20028;-64
2021/12/31 13:11:33;;;;;;;0.40;0.30;;;;;;;;;;5090624;28;20096;-64
2021/12/31 13:13:59;;;;;;;1.85;0.45;;;;;;;;;;5090089;28;20073;-65
2021/12/31 13:16:25;;;;;;;3.92;0.70;;;;;;;;;;5088903;28;20043;-65
2021/12/31 13:19:01;;;;;;;5.05;0.70;;;;;;;;;;5088133;28;20040;-65
2021/12/31 13:21:27;;;;;;;5.43;1.00;;;;;;;;;;5090306;28;20036;-67
2021/12/31 13:23:54;;;;;;;8.80;1.20;;;;;;;;;;5090919;28;20028;-65
2021/12/31 13:26:31;;;;;;;5.07;0.98;;;;;;;;;;5089127;28;20142;-66
2021/12/31 13:28:58;;;;;;;4.32;0.90;;;;;;;;;;5090729;28;20020;-66
2021/12/31 13:31:44;;;;;;;7.65;1.23;;;;;;;;;;5087423;28;20016;-65
2021/12/31 13:34:13;;;;;;;5.45;1.15;;;;;;;;;;5070537;28;20025;-65
2021/12/31 13:36:47;;;;;;;5.45;1.00;;;;;;;;;;5070220;28;20016;-67
2021/12/31 13:39:14;;;;;;;4.72;1.20;;;;;;;;;;5069031;28;20078;-66
2021/12/31 13:41:51;;;;;;;11.40;1.42;;;;;;;;;;5080613;28;20020;-72
2021/12/31 13:44:37;;;;;;;5.88;1.23;;;;;;;;;;5088052;28;20017;-73
2021/12/31 13:47:07;;;;;;;7.80;2.10;;;;;;;;;;5088458;28;20050;-66
2021/12/31 13:49:36;;;;;;;7.47;1.33;;;;;;;;;;5089787;28;20055;-74
2021/12/31 13:52:16;;;;;;;10.40;1.45;;;;;;;;;;5090162;28;20022;-66
2021/12/31 13:54:43;;;;;;;5.32;1.55;;;;;;;;;;5088283;28;20027;-69
2021/12/31 13:57:19;;;;;;;11.00;1.65;;;;;;;;;;5092302;28;20135;-65
2021/12/31 13:59:45;;;;;;;5.63;1.70;;;;;;;;;;5094097;28;20563;-65
2021/12/31 14:02:17;;;;;;;13.52;2.00;;;;;;;;;;5092989;28;20189;-65
2021/12/31 14:04:58;;;;;;;12.70;1.55;;;;;;;;;;5093910;28;20024;-66
2021/12/31 14:07:40;;;;;;;11.48;1.40;;;;;;;;;;5076147;28;20049;-66
2021/12/31 14:10:08;;;;;;;5.78;1.50;;;;;;;;;;5078395;28;20031;-66
2021/12/31 14:12:52;;;;;;;16.63;1.60;;;;;;;;;;5092066;28;20054;-70
2021/12/31 14:15:20;;;;;;;8.43;1.67;;;;;;;;;;5092380;28;20016;-67
2021/12/31 14:17:47;;;;;;;6.95;1.70;;;;;;;;;;5093648;28;20036;-66
2021/12/31 14:20:14;;;;;;;14.82;1.70;;;;;;;;;;5092349;28;20068;-66
2021/12/31 14:22:40;;;;;;;10.32;1.13;;;;;;;;;;5090457;28;20449;-66
2021/12/31 14:25:06;;;;;;;11.40;1.63;;;;;;;;;;5073431;28;20054;-71
2021/12/31 14:27:33;;;;;;;11.32;1.50;;;;;;;;;;5073229;28;20028;-66
2021/12/31 14:29:59;;;;;;;10.07;1.92;;;;;;;;;;5073102;28;20013;-74
2021/12/31 14:32:26;;;;;;;9.35;2.25;;;;;;;;;;5084766;28;20043;-70
2021/12/31 14:34:53;;;;;;;19.45;1.75;;;;;;;;;;5092897;28;20024;-72
2021/12/31 14:37:19;;;;;;;7.90;1.98;;;;;;;;;;5092530;28;20110;-73
2021/12/31 14:39:55;;;;;;;9.20;1.90;;;;;;;;;;5090610;28;20027;-68
2021/12/31 14:42:22;;;;;;;8.02;1.60;;;;;;;;;;5091047;28;20031;-68
2021/12/31 14:44:48;;;;;;;13.57;1.50;;;;;;;;;;5091197;28;20031;-68
2021/12/31 14:47:15;;;;;;;5.63;1.75;;;;;;;;;;5092820;28;20070;-69
2021/12/31 14:49:41;;;;;;;3.63;1.30;;;;;;;;;;5093196;28;20085;-68